sensor_id;sensor_type;location;lat;lon;timestamp;P1;durP1;ratioP1;P2;durP2;ratioP2
16270;SDS011;8243;49.048;8.396;2024-03-07T00:00:35;37.10;;;25.67;;
16270;SDS011;8243;49.048;8.396;2024-03-07T00:03:01;38.53;;;23.23;;
16270;SDS011;8243;49.048;8.396;2024-03-07T00:05:27;34.67;;;23.37;;
16270;SDS011;8243;49.048;8.396;2024-03-07T00:07:53;34.47;;;23.83;;
16270;SDS011;8243;49.048;8.396;2024-03-07T00:10:18;34.20;;;24.57;;
16270;SDS011;8243;49.048;8.396;2024-03-07T00:12:48;37.37;;;24.30;;
16270;SDS011;8243;49.048;8.396;2024-03-07T00:15:13;38.27;;;25.70;;
16270;SDS011;8243;49.048;8.396;2024-03-07T00:17:39;36.80;;;25.77;;
16270;SDS011;8243;49.048;8.396;2024-03-07T00:20:06;39.87;;;27.30;;
16270;SDS011;8243;49.048;8.396;2024-03-07T00:22:39;44.00;;;30.47;;
16270;SDS011;8243;49.048;8.396;2024-03-07T00:25:06;51.83;;;31.83;;
16270;SDS011;8243;49.048;8.396;2024-03-07T00:27:32;48.20;;;30.73;;
16270;SDS011;8243;49.048;8.396;2024-03-07T00:29:58;55.93;;;34.30;;
16270;SDS011;8243;49.048;8.396;2024-03-07T00:32:24;49.40;;;32.27;;
16270;SDS011;8243;49.048;8.396;2024-03-07T00:34:52;50.40;;;31.20;;
16270;SDS011;8243;49.048;8.396;2024-03-07T00:37:17;40.93;;;27.00;;
16270;SDS011;8243;49.048;8.396;2024-03-07T00:39:43;41.00;;;28.57;;
16270;SDS011;8243;49.048;8.396;2024-03-07T00:42:08;45.07;;;29.27;;
16270;SDS011;8243;49.048;8.396;2024-03-07T00:44:34;46.60;;;28.63;;
16270;SDS011;8243;49.048;8.396;2024-03-07T00:47:00;43.90;;;29.63;;
16270;SDS011;8243;49.048;8.396;2024-03-07T00:49:29;43.87;;;29.43;;
16270;SDS011;8243;49.048;8.396;2024-03-07T00:51:55;43.13;;;27.80;;
16270;SDS011;8243;49.048;8.396;2024-03-07T00:54:22;41.07;;;28.93;;
16270;SDS011;8243;49.048;8.396;2024-03-07T00:56:48;40.77;;;26.57;;
16270;SDS011;8243;49.048;8.396;2024-03-07T00:59:14;48.97;;;30.80;;
16270;SDS011;8243;49.048;8.396;2024-03-07T01:01:40;48.27;;;28.43;;
16270;SDS011;8243;49.048;8.396;2024-03-07T01:04:06;49.67;;;32.30;;
16270;SDS011;8243;49.048;8.396;2024-03-07T01:06:32;54.17;;;35.00;;
16270;SDS011;8243;49.048;8.396;2024-03-07T01:08:59;59.23;;;34.27;;
16270;SDS011;8243;49.048;8.396;2024-03-07T01:11:24;51.40;;;31.40;;
16270;SDS011;8243;49.048;8.396;2024-03-07T01:13:50;47.43;;;29.63;;
16270;SDS011;8243;49.048;8.396;2024-03-07T01:16:16;50.87;;;31.70;;
16270;SDS011;8243;49.048;8.396;2024-03-07T01:18:41;52.80;;;31.97;;
16270;SDS011;8243;49.048;8.396;2024-03-07T01:21:07;45.83;;;29.33;;
16270;SDS011;8243;49.048;8.396;2024-03-07T01:23:33;53.97;;;33.07;;
16270;SDS011;8243;49.048;8.396;2024-03-07T01:25:59;55.23;;;33.13;;
16270;SDS011;8243;49.048;8.396;2024-03-07T01:28:25;56.07;;;34.03;;
16270;SDS011;8243;49.048;8.396;2024-03-07T01:30:51;53.50;;;34.90;;
16270;SDS011;8243;49.048;8.396;2024-03-07T01:33:17;59.40;;;36.47;;
16270;SDS011;8243;49.048;8.396;2024-03-07T01:35:44;53.67;;;35.57;;
16270;SDS011;8243;49.048;8.396;2024-03-07T01:38:10;53.17;;;34.20;;
16270;SDS011;8243;49.048;8.396;2024-03-07T01:40:36;55.40;;;34.70;;
16270;SDS011;8243;49.048;8.396;2024-03-07T01:43:02;52.63;;;34.67;;
16270;SDS011;8243;49.048;8.396;2024-03-07T01:45:28;54.80;;;34.63;;
16270;SDS011;8243;49.048;8.396;2024-03-07T01:47:53;59.07;;;35.93;;
16270;SDS011;8243;49.048;8.396;2024-03-07T01:50:20;51.37;;;33.37;;
16270;SDS011;8243;49.048;8.396;2024-03-07T01:52:46;53.03;;;34.93;;
16270;SDS011;8243;49.048;8.396;2024-03-07T01:55:15;53.10;;;35.50;;
16270;SDS011;8243;49.048;8.396;2024-03-07T01:57:41;52.93;;;35.27;;
16270;SDS011;8243;49.048;8.396;2024-03-07T02:00:07;54.60;;;33.87;;
16270;SDS011;8243;49.048;8.396;2024-03-07T02:02:34;50.13;;;31.90;;
16270;SDS011;8243;49.048;8.396;2024-03-07T02:04:59;50.40;;;32.30;;
16270;SDS011;8243;49.048;8.396;2024-03-07T02:07:25;50.47;;;31.30;;
16270;SDS011;8243;49.048;8.396;2024-03-07T02:09:58;42.70;;;29.73;;
16270;SDS011;8243;49.048;8.396;2024-03-07T02:12:28;43.70;;;29.70;;
16270;SDS011;8243;49.048;8.396;2024-03-07T02:14:55;47.47;;;32.73;;
16270;SDS011;8243;49.048;8.396;2024-03-07T02:17:25;48.83;;;32.17;;
16270;SDS011;8243;49.048;8.396;2024-03-07T02:19:51;47.97;;;31.57;;
16270;SDS011;8243;49.048;8.396;2024-03-07T02:22:17;46.93;;;32.27;;
16270;SDS011;8243;49.048;8.396;2024-03-07T02:24:44;50.37;;;33.30;;
16270;SDS011;8243;49.048;8.396;2024-03-07T02:27:10;47.30;;;32.67;;
16270;SDS011;8243;49.048;8.396;2024-03-07T02:29:36;50.87;;;32.90;;
16270;SDS011;8243;49.048;8.396;2024-03-07T02:32:02;46.37;;;31.57;;
16270;SDS011;8243;49.048;8.396;2024-03-07T02:34:28;49.07;;;31.03;;
16270;SDS011;8243;49.048;8.396;2024-03-07T02:36:53;46.53;;;30.70;;
16270;SDS011;8243;49.048;8.396;2024-03-07T02:39:19;43.90;;;29.33;;
16270;SDS011;8243;49.048;8.396;2024-03-07T02:41:46;45.43;;;30.73;;
16270;SDS011;8243;49.048;8.396;2024-03-07T02:44:12;44.53;;;29.77;;
16270;SDS011;8243;49.048;8.396;2024-03-07T02:46:39;42.13;;;27.43;;
16270;SDS011;8243;49.048;8.396;2024-03-07T02:49:05;45.07;;;29.63;;
16270;SDS011;8243;49.048;8.396;2024-03-07T02:51:30;40.00;;;28.40;;
16270;SDS011;8243;49.048;8.396;2024-03-07T02:53:56;46.23;;;32.27;;
16270;SDS011;8243;49.048;8.396;2024-03-07T02:56:22;43.60;;;29.80;;
16270;SDS011;8243;49.048;8.396;2024-03-07T02:58:48;40.47;;;28.53;;
16270;SDS011;8243;49.048;8.396;2024-03-07T03:01:14;42.07;;;30.47;;
16270;SDS011;8243;49.048;8.396;2024-03-07T03:03:39;43.17;;;29.93;;
16270;SDS011;8243;49.048;8.396;2024-03-07T03:06:07;43.47;;;30.00;;
16270;SDS011;8243;49.048;8.396;2024-03-07T03:08:33;42.63;;;30.27;;
16270;SDS011;8243;49.048;8.396;2024-03-07T03:10:59;43.93;;;30.67;;
16270;SDS011;8243;49.048;8.396;2024-03-07T03:13:25;41.80;;;28.77;;
16270;SDS011;8243;49.048;8.396;2024-03-07T03:15:52;56.87;;;35.00;;
16270;SDS011;8243;49.048;8.396;2024-03-07T03:18:19;64.97;;;41.30;;
16270;SDS011;8243;49.048;8.396;2024-03-07T03:20:45;45.03;;;31.17;;
16270;SDS011;8243;49.048;8.396;2024-03-07T03:23:13;46.50;;;28.23;;
16270;SDS011;8243;49.048;8.396;2024-03-07T03:25:39;45.23;;;31.27;;
16270;SDS011;8243;49.048;8.396;2024-03-07T03:28:06;44.80;;;31.43;;
16270;SDS011;8243;49.048;8.396;2024-03-07T03:30:35;44.40;;;31.30;;
16270;SDS011;8243;49.048;8.396;2024-03-07T03:33:04;45.93;;;31.90;;
16270;SDS011;8243;49.048;8.396;2024-03-07T03:35:31;43.57;;;28.57;;
16270;SDS011;8243;49.048;8.396;2024-03-07T03:37:58;47.30;;;30.60;;
16270;SDS011;8243;49.048;8.396;2024-03-07T03:40:24;49.13;;;32.57;;
16270;SDS011;8243;49.048;8.396;2024-03-07T03:42:49;55.47;;;36.57;;
16270;SDS011;8243;49.048;8.396;2024-03-07T03:45:15;49.10;;;33.00;;
16270;SDS011;8243;49.048;8.396;2024-03-07T03:47:41;47.00;;;32.80;;
16270;SDS011;8243;49.048;8.396;2024-03-07T03:50:08;53.13;;;33.47;;
16270;SDS011;8243;49.048;8.396;2024-03-07T03:52:36;49.30;;;32.30;;
16270;SDS011;8243;49.048;8.396;2024-03-07T03:55:01;47.77;;;33.70;;
16270;SDS011;8243;49.048;8.396;2024-03-07T03:57:29;51.73;;;32.43;;
16270;SDS011;8243;49.048;8.396;2024-03-07T03:59:55;50.87;;;34.73;;
16270;SDS011;8243;49.048;8.396;2024-03-07T04:02:21;48.10;;;31.70;;
16270;SDS011;8243;49.048;8.396;2024-03-07T04:04:50;46.87;;;33.07;;
16270;SDS011;8243;49.048;8.396;2024-03-07T04:07:17;50.97;;;34.17;;
16270;SDS011;8243;49.048;8.396;2024-03-07T04:09:44;51.50;;;34.07;;
16270;SDS011;8243;49.048;8.396;2024-03-07T04:12:10;53.97;;;34.67;;
16270;SDS011;8243;49.048;8.396;2024-03-07T04:14:39;54.60;;;34.07;;
16270;SDS011;8243;49.048;8.396;2024-03-07T04:17:06;51.83;;;33.23;;
16270;SDS011;8243;49.048;8.396;2024-03-07T04:19:40;47.73;;;32.63;;
16270;SDS011;8243;49.048;8.396;2024-03-07T04:22:07;51.37;;;32.83;;
16270;SDS011;8243;49.048;8.396;2024-03-07T04:24:35;53.43;;;35.47;;
16270;SDS011;8243;49.048;8.396;2024-03-07T04:27:01;46.80;;;31.20;;
16270;SDS011;8243;49.048;8.396;2024-03-07T04:29:31;51.10;;;33.63;;
16270;SDS011;8243;49.048;8.396;2024-03-07T04:31:57;49.17;;;31.00;;
16270;SDS011;8243;49.048;8.396;2024-03-07T04:34:24;49.23;;;32.03;;
16270;SDS011;8243;49.048;8.396;2024-03-07T04:36:50;53.60;;;33.80;;
16270;SDS011;8243;49.048;8.396;2024-03-07T04:39:16;55.97;;;34.53;;
16270;SDS011;8243;49.048;8.396;2024-03-07T04:41:53;53.70;;;34.87;;
16270;SDS011;8243;49.048;8.396;2024-03-07T04:44:19;52.70;;;30.07;;
16270;SDS011;8243;49.048;8.396;2024-03-07T04:46:47;51.00;;;32.50;;
16270;SDS011;8243;49.048;8.396;2024-03-07T04:49:15;52.03;;;34.23;;
16270;SDS011;8243;49.048;8.396;2024-03-07T04:51:41;53.97;;;33.20;;
16270;SDS011;8243;49.048;8.396;2024-03-07T04:54:06;50.00;;;31.33;;
16270;SDS011;8243;49.048;8.396;2024-03-07T04:56:32;51.43;;;33.33;;
16270;SDS011;8243;49.048;8.396;2024-03-07T04:58:57;51.63;;;33.00;;
16270;SDS011;8243;49.048;8.396;2024-03-07T05:01:23;54.97;;;33.90;;
16270;SDS011;8243;49.048;8.396;2024-03-07T05:03:50;51.93;;;33.73;;
16270;SDS011;8243;49.048;8.396;2024-03-07T05:06:17;50.50;;;33.17;;
16270;SDS011;8243;49.048;8.396;2024-03-07T05:08:43;49.00;;;32.60;;
16270;SDS011;8243;49.048;8.396;2024-03-07T05:11:15;50.57;;;32.67;;
16270;SDS011;8243;49.048;8.396;2024-03-07T05:13:40;49.23;;;30.10;;
16270;SDS011;8243;49.048;8.396;2024-03-07T05:16:07;50.53;;;30.80;;
16270;SDS011;8243;49.048;8.396;2024-03-07T05:18:33;52.83;;;33.53;;
16270;SDS011;8243;49.048;8.396;2024-03-07T05:20:58;48.70;;;30.27;;
16270;SDS011;8243;49.048;8.396;2024-03-07T05:23:44;50.97;;;32.83;;
16270;SDS011;8243;49.048;8.396;2024-03-07T05:26:10;41.93;;;25.13;;
16270;SDS011;8243;49.048;8.396;2024-03-07T05:28:40;50.20;;;33.23;;
16270;SDS011;8243;49.048;8.396;2024-03-07T05:31:06;50.83;;;32.90;;
16270;SDS011;8243;49.048;8.396;2024-03-07T05:33:31;51.27;;;29.93;;
16270;SDS011;8243;49.048;8.396;2024-03-07T05:35:57;46.10;;;29.97;;
16270;SDS011;8243;49.048;8.396;2024-03-07T05:38:44;44.80;;;28.20;;
16270;SDS011;8243;49.048;8.396;2024-03-07T05:41:13;52.47;;;33.87;;
16270;SDS011;8243;49.048;8.396;2024-03-07T05:43:45;54.67;;;31.97;;
16270;SDS011;8243;49.048;8.396;2024-03-07T05:46:12;51.13;;;31.57;;
16270;SDS011;8243;49.048;8.396;2024-03-07T05:48:38;52.40;;;30.83;;
16270;SDS011;8243;49.048;8.396;2024-03-07T05:51:04;49.43;;;32.00;;
16270;SDS011;8243;49.048;8.396;2024-03-07T05:53:29;50.70;;;33.53;;
16270;SDS011;8243;49.048;8.396;2024-03-07T05:55:55;48.50;;;32.87;;
16270;SDS011;8243;49.048;8.396;2024-03-07T05:58:21;47.67;;;31.93;;
16270;SDS011;8243;49.048;8.396;2024-03-07T06:00:46;52.10;;;32.77;;
16270;SDS011;8243;49.048;8.396;2024-03-07T06:03:16;52.47;;;33.93;;
16270;SDS011;8243;49.048;8.396;2024-03-07T06:05:45;51.77;;;32.07;;
16270;SDS011;8243;49.048;8.396;2024-03-07T06:08:13;52.50;;;33.53;;
16270;SDS011;8243;49.048;8.396;2024-03-07T06:10:41;47.70;;;30.67;;
16270;SDS011;8243;49.048;8.396;2024-03-07T06:13:16;49.67;;;31.47;;
16270;SDS011;8243;49.048;8.396;2024-03-07T06:15:45;50.67;;;31.33;;
16270;SDS011;8243;49.048;8.396;2024-03-07T06:18:11;54.03;;;31.50;;
16270;SDS011;8243;49.048;8.396;2024-03-07T06:20:47;49.70;;;31.87;;
16270;SDS011;8243;49.048;8.396;2024-03-07T06:23:13;48.30;;;30.50;;
16270;SDS011;8243;49.048;8.396;2024-03-07T06:25:42;50.67;;;32.83;;
16270;SDS011;8243;49.048;8.396;2024-03-07T06:28:18;46.93;;;31.40;;
16270;SDS011;8243;49.048;8.396;2024-03-07T06:30:44;45.47;;;30.40;;
16270;SDS011;8243;49.048;8.396;2024-03-07T06:33:12;46.33;;;31.53;;
16270;SDS011;8243;49.048;8.396;2024-03-07T06:35:38;44.47;;;31.40;;
16270;SDS011;8243;49.048;8.396;2024-03-07T06:38:05;45.60;;;30.50;;
16270;SDS011;8243;49.048;8.396;2024-03-07T06:40:31;42.60;;;28.33;;
16270;SDS011;8243;49.048;8.396;2024-03-07T06:43:00;39.83;;;27.97;;
16270;SDS011;8243;49.048;8.396;2024-03-07T06:45:28;38.00;;;28.00;;
16270;SDS011;8243;49.048;8.396;2024-03-07T06:47:54;34.90;;;26.33;;
16270;SDS011;8243;49.048;8.396;2024-03-07T06:50:20;36.93;;;25.43;;
16270;SDS011;8243;49.048;8.396;2024-03-07T06:52:46;33.93;;;24.33;;
16270;SDS011;8243;49.048;8.396;2024-03-07T06:55:15;33.50;;;23.23;;
16270;SDS011;8243;49.048;8.396;2024-03-07T06:57:44;32.80;;;23.07;;
16270;SDS011;8243;49.048;8.396;2024-03-07T07:00:11;34.87;;;24.23;;
16270;SDS011;8243;49.048;8.396;2024-03-07T07:02:39;28.97;;;20.50;;
16270;SDS011;8243;49.048;8.396;2024-03-07T07:05:06;29.57;;;22.03;;
16270;SDS011;8243;49.048;8.396;2024-03-07T07:07:36;24.60;;;20.00;;
16270;SDS011;8243;49.048;8.396;2024-03-07T07:10:03;28.57;;;21.80;;
16270;SDS011;8243;49.048;8.396;2024-03-07T07:12:29;26.33;;;19.70;;
16270;SDS011;8243;49.048;8.396;2024-03-07T07:14:55;25.27;;;18.83;;
16270;SDS011;8243;49.048;8.396;2024-03-07T07:17:20;23.87;;;18.97;;
16270;SDS011;8243;49.048;8.396;2024-03-07T07:19:48;23.63;;;17.03;;
16270;SDS011;8243;49.048;8.396;2024-03-07T07:22:14;21.27;;;15.63;;
16270;SDS011;8243;49.048;8.396;2024-03-07T07:24:39;23.50;;;16.73;;
16270;SDS011;8243;49.048;8.396;2024-03-07T07:27:05;21.60;;;17.93;;
16270;SDS011;8243;49.048;8.396;2024-03-07T07:29:32;20.90;;;16.73;;
16270;SDS011;8243;49.048;8.396;2024-03-07T07:31:57;22.67;;;17.77;;
16270;SDS011;8243;49.048;8.396;2024-03-07T07:34:23;20.00;;;15.67;;
16270;SDS011;8243;49.048;8.396;2024-03-07T07:36:49;20.63;;;16.67;;
16270;SDS011;8243;49.048;8.396;2024-03-07T07:39:14;20.23;;;16.20;;
16270;SDS011;8243;49.048;8.396;2024-03-07T07:41:42;20.53;;;16.93;;
16270;SDS011;8243;49.048;8.396;2024-03-07T07:44:08;19.17;;;16.33;;
16270;SDS011;8243;49.048;8.396;2024-03-07T07:46:34;20.47;;;16.23;;
16270;SDS011;8243;49.048;8.396;2024-03-07T07:49:00;18.87;;;16.53;;
16270;SDS011;8243;49.048;8.396;2024-03-07T07:51:27;19.80;;;15.60;;
16270;SDS011;8243;49.048;8.396;2024-03-07T07:53:53;17.93;;;15.27;;
16270;SDS011;8243;49.048;8.396;2024-03-07T07:56:21;18.80;;;15.03;;
16270;SDS011;8243;49.048;8.396;2024-03-07T07:58:47;18.70;;;14.37;;
16270;SDS011;8243;49.048;8.396;2024-03-07T08:01:14;19.87;;;16.27;;
16270;SDS011;8243;49.048;8.396;2024-03-07T08:03:41;19.30;;;15.70;;
16270;SDS011;8243;49.048;8.396;2024-03-07T08:06:08;16.17;;;14.10;;
16270;SDS011;8243;49.048;8.396;2024-03-07T08:08:34;19.00;;;15.17;;
16270;SDS011;8243;49.048;8.396;2024-03-07T08:11:00;17.00;;;13.60;;
16270;SDS011;8243;49.048;8.396;2024-03-07T08:13:26;16.90;;;14.77;;
16270;SDS011;8243;49.048;8.396;2024-03-07T08:15:51;18.07;;;14.77;;
16270;SDS011;8243;49.048;8.396;2024-03-07T08:18:19;20.00;;;15.27;;
16270;SDS011;8243;49.048;8.396;2024-03-07T08:20:45;19.83;;;16.40;;
16270;SDS011;8243;49.048;8.396;2024-03-07T08:23:11;20.60;;;15.47;;
16270;SDS011;8243;49.048;8.396;2024-03-07T08:25:38;17.90;;;14.53;;
16270;SDS011;8243;49.048;8.396;2024-03-07T08:28:07;19.63;;;15.60;;
16270;SDS011;8243;49.048;8.396;2024-03-07T08:30:33;17.10;;;12.70;;
16270;SDS011;8243;49.048;8.396;2024-03-07T08:33:00;18.13;;;14.67;;
16270;SDS011;8243;49.048;8.396;2024-03-07T08:35:28;18.27;;;13.17;;
16270;SDS011;8243;49.048;8.396;2024-03-07T08:37:54;18.20;;;14.00;;
16270;SDS011;8243;49.048;8.396;2024-03-07T08:40:21;17.03;;;13.93;;
16270;SDS011;8243;49.048;8.396;2024-03-07T08:42:49;18.40;;;13.27;;
16270;SDS011;8243;49.048;8.396;2024-03-07T08:45:21;16.17;;;13.20;;
16270;SDS011;8243;49.048;8.396;2024-03-07T08:47:48;15.63;;;13.23;;
16270;SDS011;8243;49.048;8.396;2024-03-07T08:50:15;14.70;;;12.03;;
16270;SDS011;8243;49.048;8.396;2024-03-07T08:52:43;15.17;;;11.40;;
16270;SDS011;8243;49.048;8.396;2024-03-07T08:55:09;15.87;;;12.87;;
16270;SDS011;8243;49.048;8.396;2024-03-07T08:57:38;15.00;;;11.90;;
16270;SDS011;8243;49.048;8.396;2024-03-07T09:00:04;19.20;;;13.90;;
16270;SDS011;8243;49.048;8.396;2024-03-07T09:02:34;16.17;;;13.57;;
16270;SDS011;8243;49.048;8.396;2024-03-07T09:05:04;17.40;;;13.50;;
16270;SDS011;8243;49.048;8.396;2024-03-07T09:07:30;15.17;;;12.40;;
16270;SDS011;8243;49.048;8.396;2024-03-07T09:09:56;15.90;;;11.07;;
16270;SDS011;8243;49.048;8.396;2024-03-07T09:12:22;16.10;;;11.83;;
16270;SDS011;8243;49.048;8.396;2024-03-07T09:14:50;16.93;;;13.70;;
16270;SDS011;8243;49.048;8.396;2024-03-07T09:17:17;16.20;;;14.03;;
16270;SDS011;8243;49.048;8.396;2024-03-07T09:19:43;15.37;;;12.57;;
16270;SDS011;8243;49.048;8.396;2024-03-07T09:22:08;15.77;;;13.40;;
16270;SDS011;8243;49.048;8.396;2024-03-07T09:24:34;15.83;;;12.97;;
16270;SDS011;8243;49.048;8.396;2024-03-07T09:26:59;15.37;;;11.63;;
16270;SDS011;8243;49.048;8.396;2024-03-07T09:29:25;15.23;;;12.27;;
16270;SDS011;8243;49.048;8.396;2024-03-07T09:31:52;12.63;;;9.53;;
16270;SDS011;8243;49.048;8.396;2024-03-07T09:34:18;15.60;;;12.97;;
16270;SDS011;8243;49.048;8.396;2024-03-07T09:36:48;15.10;;;12.33;;
16270;SDS011;8243;49.048;8.396;2024-03-07T09:39:17;14.60;;;12.00;;
16270;SDS011;8243;49.048;8.396;2024-03-07T09:41:44;14.23;;;11.63;;
16270;SDS011;8243;49.048;8.396;2024-03-07T09:44:09;15.87;;;13.00;;
16270;SDS011;8243;49.048;8.396;2024-03-07T09:46:39;12.20;;;10.53;;
16270;SDS011;8243;49.048;8.396;2024-03-07T09:49:05;15.83;;;13.63;;
16270;SDS011;8243;49.048;8.396;2024-03-07T09:51:34;16.60;;;14.23;;
16270;SDS011;8243;49.048;8.396;2024-03-07T09:54:00;15.27;;;12.93;;
16270;SDS011;8243;49.048;8.396;2024-03-07T09:56:27;16.37;;;12.93;;
16270;SDS011;8243;49.048;8.396;2024-03-07T09:58:57;13.80;;;9.73;;
16270;SDS011;8243;49.048;8.396;2024-03-07T10:01:30;14.97;;;13.30;;
16270;SDS011;8243;49.048;8.396;2024-03-07T10:03:59;16.80;;;13.43;;
16270;SDS011;8243;49.048;8.396;2024-03-07T10:06:35;18.13;;;13.50;;
16270;SDS011;8243;49.048;8.396;2024-03-07T10:09:01;18.73;;;14.43;;
16270;SDS011;8243;49.048;8.396;2024-03-07T10:11:26;16.60;;;13.40;;
16270;SDS011;8243;49.048;8.396;2024-03-07T10:13:56;17.20;;;13.57;;
16270;SDS011;8243;49.048;8.396;2024-03-07T10:16:21;17.20;;;14.30;;
16270;SDS011;8243;49.048;8.396;2024-03-07T10:18:54;18.43;;;14.20;;
16270;SDS011;8243;49.048;8.396;2024-03-07T10:21:20;17.97;;;13.73;;
16270;SDS011;8243;49.048;8.396;2024-03-07T10:23:46;14.87;;;12.33;;
16270;SDS011;8243;49.048;8.396;2024-03-07T10:26:12;22.07;;;15.53;;
16270;SDS011;8243;49.048;8.396;2024-03-07T10:28:38;20.93;;;14.70;;
16270;SDS011;8243;49.048;8.396;2024-03-07T10:31:04;18.27;;;14.97;;
16270;SDS011;8243;49.048;8.396;2024-03-07T10:33:36;19.67;;;15.00;;
16270;SDS011;8243;49.048;8.396;2024-03-07T10:36:02;19.67;;;15.73;;
16270;SDS011;8243;49.048;8.396;2024-03-07T10:38:28;18.17;;;14.90;;
16270;SDS011;8243;49.048;8.396;2024-03-07T10:40:54;20.80;;;16.97;;
16270;SDS011;8243;49.048;8.396;2024-03-07T10:43:21;22.07;;;16.17;;
16270;SDS011;8243;49.048;8.396;2024-03-07T10:45:50;24.20;;;17.57;;
16270;SDS011;8243;49.048;8.396;2024-03-07T10:48:21;22.20;;;17.50;;
16270;SDS011;8243;49.048;8.396;2024-03-07T10:51:11;17.93;;;12.13;;
16270;SDS011;8243;49.048;8.396;2024-03-07T10:54:06;19.63;;;15.73;;
16270;SDS011;8243;49.048;8.396;2024-03-07T10:59:33;21.33;;;16.53;;
16270;SDS011;8243;49.048;8.396;2024-03-07T11:02:15;19.53;;;15.37;;
16270;SDS011;8243;49.048;8.396;2024-03-07T11:04:44;21.20;;;14.47;;
16270;SDS011;8243;49.048;8.396;2024-03-07T11:07:13;25.70;;;18.77;;
16270;SDS011;8243;49.048;8.396;2024-03-07T11:09:39;20.87;;;16.83;;
16270;SDS011;8243;49.048;8.396;2024-03-07T11:12:07;23.17;;;16.47;;
16270;SDS011;8243;49.048;8.396;2024-03-07T11:14:35;23.67;;;18.80;;
16270;SDS011;8243;49.048;8.396;2024-03-07T11:17:02;22.93;;;18.60;;
16270;SDS011;8243;49.048;8.396;2024-03-07T11:19:30;21.07;;;17.20;;
16270;SDS011;8243;49.048;8.396;2024-03-07T11:22:01;23.37;;;18.47;;
16270;SDS011;8243;49.048;8.396;2024-03-07T11:24:30;21.97;;;16.20;;
16270;SDS011;8243;49.048;8.396;2024-03-07T11:27:03;25.07;;;19.40;;
16270;SDS011;8243;49.048;8.396;2024-03-07T11:29:38;24.13;;;19.23;;
16270;SDS011;8243;49.048;8.396;2024-03-07T11:32:08;21.23;;;17.33;;
16270;SDS011;8243;49.048;8.396;2024-03-07T11:34:37;26.43;;;17.43;;
16270;SDS011;8243;49.048;8.396;2024-03-07T11:37:04;24.80;;;19.13;;
16270;SDS011;8243;49.048;8.396;2024-03-07T11:39:39;21.67;;;16.60;;
16270;SDS011;8243;49.048;8.396;2024-03-07T11:42:06;22.87;;;16.90;;
16270;SDS011;8243;49.048;8.396;2024-03-07T11:44:32;20.87;;;15.87;;
16270;SDS011;8243;49.048;8.396;2024-03-07T11:47:04;23.30;;;19.10;;
16270;SDS011;8243;49.048;8.396;2024-03-07T11:49:34;21.87;;;16.70;;
16270;SDS011;8243;49.048;8.396;2024-03-07T11:52:03;23.60;;;17.30;;
16270;SDS011;8243;49.048;8.396;2024-03-07T11:54:36;25.13;;;19.63;;
16270;SDS011;8243;49.048;8.396;2024-03-07T11:57:05;23.33;;;19.17;;
16270;SDS011;8243;49.048;8.396;2024-03-07T11:59:37;26.97;;;19.37;;
16270;SDS011;8243;49.048;8.396;2024-03-07T12:02:05;21.70;;;17.43;;
16270;SDS011;8243;49.048;8.396;2024-03-07T12:04:30;23.50;;;18.70;;
16270;SDS011;8243;49.048;8.396;2024-03-07T12:06:59;23.93;;;18.97;;
16270;SDS011;8243;49.048;8.396;2024-03-07T12:09:25;21.30;;;18.53;;
16270;SDS011;8243;49.048;8.396;2024-03-07T12:11:51;23.93;;;17.40;;
16270;SDS011;8243;49.048;8.396;2024-03-07T12:14:20;25.30;;;17.73;;
16270;SDS011;8243;49.048;8.396;2024-03-07T12:16:46;24.93;;;18.30;;
16270;SDS011;8243;49.048;8.396;2024-03-07T12:19:12;23.07;;;17.43;;
16270;SDS011;8243;49.048;8.396;2024-03-07T12:21:42;22.07;;;17.73;;
16270;SDS011;8243;49.048;8.396;2024-03-07T12:24:15;23.30;;;18.83;;
16270;SDS011;8243;49.048;8.396;2024-03-07T12:26:41;24.67;;;19.73;;
16270;SDS011;8243;49.048;8.396;2024-03-07T12:29:10;22.63;;;18.57;;
16270;SDS011;8243;49.048;8.396;2024-03-07T12:31:41;22.47;;;17.90;;
16270;SDS011;8243;49.048;8.396;2024-03-07T12:34:07;22.43;;;19.07;;
16270;SDS011;8243;49.048;8.396;2024-03-07T12:36:36;24.43;;;18.50;;
16270;SDS011;8243;49.048;8.396;2024-03-07T12:39:24;23.67;;;19.03;;
16270;SDS011;8243;49.048;8.396;2024-03-07T12:41:51;22.90;;;17.80;;
16270;SDS011;8243;49.048;8.396;2024-03-07T12:47:14;23.23;;;17.60;;
16270;SDS011;8243;49.048;8.396;2024-03-07T12:49:41;22.23;;;18.73;;
16270;SDS011;8243;49.048;8.396;2024-03-07T12:52:11;23.93;;;18.87;;
16270;SDS011;8243;49.048;8.396;2024-03-07T12:54:40;19.83;;;16.70;;
16270;SDS011;8243;49.048;8.396;2024-03-07T12:57:09;23.37;;;18.17;;
16270;SDS011;8243;49.048;8.396;2024-03-07T12:59:35;22.13;;;16.20;;
16270;SDS011;8243;49.048;8.396;2024-03-07T13:02:09;22.90;;;18.13;;
16270;SDS011;8243;49.048;8.396;2024-03-07T13:04:38;22.13;;;18.17;;
16270;SDS011;8243;49.048;8.396;2024-03-07T13:07:06;19.90;;;17.53;;
16270;SDS011;8243;49.048;8.396;2024-03-07T13:09:32;21.57;;;16.73;;
16270;SDS011;8243;49.048;8.396;2024-03-07T13:11:59;23.20;;;17.97;;
16270;SDS011;8243;49.048;8.396;2024-03-07T13:14:34;21.80;;;18.13;;
16270;SDS011;8243;49.048;8.396;2024-03-07T13:17:00;20.43;;;17.17;;
16270;SDS011;8243;49.048;8.396;2024-03-07T13:19:30;22.13;;;17.60;;
16270;SDS011;8243;49.048;8.396;2024-03-07T13:21:56;23.57;;;17.73;;
16270;SDS011;8243;49.048;8.396;2024-03-07T13:24:29;26.20;;;17.70;;
16270;SDS011;8243;49.048;8.396;2024-03-07T13:27:00;22.10;;;16.80;;
16270;SDS011;8243;49.048;8.396;2024-03-07T13:29:33;21.37;;;17.37;;
16270;SDS011;8243;49.048;8.396;2024-03-07T13:32:04;23.27;;;18.23;;
16270;SDS011;8243;49.048;8.396;2024-03-07T13:34:30;20.43;;;17.97;;
16270;SDS011;8243;49.048;8.396;2024-03-07T13:36:58;25.93;;;19.07;;
16270;SDS011;8243;49.048;8.396;2024-03-07T13:39:27;19.90;;;16.00;;
16270;SDS011;8243;49.048;8.396;2024-03-07T13:42:00;23.33;;;15.83;;
16270;SDS011;8243;49.048;8.396;2024-03-07T13:44:28;22.93;;;17.97;;
16270;SDS011;8243;49.048;8.396;2024-03-07T13:46:53;21.63;;;17.57;;
16270;SDS011;8243;49.048;8.396;2024-03-07T13:49:21;20.80;;;16.60;;
16270;SDS011;8243;49.048;8.396;2024-03-07T13:51:50;19.93;;;16.27;;
16270;SDS011;8243;49.048;8.396;2024-03-07T13:54:18;19.73;;;16.87;;
16270;SDS011;8243;49.048;8.396;2024-03-07T14:00:16;22.07;;;16.37;;
16270;SDS011;8243;49.048;8.396;2024-03-07T14:06:04;21.40;;;17.23;;
16270;SDS011;8243;49.048;8.396;2024-03-07T14:20:06;19.63;;;15.93;;
16270;SDS011;8243;49.048;8.396;2024-03-07T14:31:30;20.23;;;16.97;;
16270;SDS011;8243;49.048;8.396;2024-03-07T14:34:03;23.27;;;17.83;;
16270;SDS011;8243;49.048;8.396;2024-03-07T14:36:41;22.73;;;17.43;;
16270;SDS011;8243;49.048;8.396;2024-03-07T14:39:11;20.47;;;17.03;;
16270;SDS011;8243;49.048;8.396;2024-03-07T14:44:34;23.10;;;18.67;;
16270;SDS011;8243;49.048;8.396;2024-03-07T14:47:03;22.93;;;17.07;;
16270;SDS011;8243;49.048;8.396;2024-03-07T14:49:35;22.43;;;17.97;;
16270;SDS011;8243;49.048;8.396;2024-03-07T14:52:02;23.37;;;18.37;;
16270;SDS011;8243;49.048;8.396;2024-03-07T14:54:28;22.20;;;17.90;;
16270;SDS011;8243;49.048;8.396;2024-03-07T14:56:54;21.03;;;17.50;;
16270;SDS011;8243;49.048;8.396;2024-03-07T14:59:20;23.23;;;18.97;;
16270;SDS011;8243;49.048;8.396;2024-03-07T15:01:46;21.33;;;17.67;;
16270;SDS011;8243;49.048;8.396;2024-03-07T15:04:12;21.67;;;18.37;;
16270;SDS011;8243;49.048;8.396;2024-03-07T15:06:40;20.53;;;16.60;;
16270;SDS011;8243;49.048;8.396;2024-03-07T15:09:07;20.83;;;17.00;;
16270;SDS011;8243;49.048;8.396;2024-03-07T15:11:35;20.77;;;18.33;;
16270;SDS011;8243;49.048;8.396;2024-03-07T15:14:05;22.63;;;19.10;;